Aviation Digital Data Service (ADDS)

Output produced by METARs form (0106 UTC 21 December 2014)
found at http://aviationweather.gov/adds/metars/
 
KORH 202324Z 2100/2124 04005KT P6SM OVC020 
     FM210400 VRB03KT P6SM OVC020